Time,TemperatureF,DewpointF,PressureIn,WindDirection,WindDirectionDegrees,WindSpeedMPH,WindSpeedGustMPH,Humidity,HourlyPrecipIn,Conditions,Clouds,dailyrainin,SoftwareType,DateUTC
2017-07-24 00:06:00,64.4,54.0,29.83,WSW,249,4.0,8.0,70,0.00,,,0.00,weatherlink.com 1.10,2017-07-24 07:06:00,
2017-07-24 00:21:00,63.5,54.0,29.83,SW,228,2.0,6.0,71,0.00,,,0.00,weatherlink.com 1.10,2017-07-24 07:21:00,
2017-07-24 00:36:00,62.2,54.0,29.83,SW,224,4.0,5.0,74,0.00,,,0.00,weatherlink.com 1.10,2017-07-24 07:36:00,
2017-07-24 00:51:00,62.3,54.0,29.83,SW,226,4.0,7.0,75,0.00,,,0.00,weatherlink.com 1.10,2017-07-24 07:51:00,
2017-07-24 01:07:00,62.5,54.0,29.83,SW,236,7.0,9.0,73,0.00,,,0.00,weatherlink.com 1.10,2017-07-24 08:07:00,
2017-07-24 01:21:00,61.8,54.0,29.84,WSW,240,5.0,7.0,75,0.00,,,0.00,weatherlink.com 1.10,2017-07-24 08:21:00,
2017-07-24 01:36:00,60.8,54.0,29.84,SW,231,3.0,7.0,78,0.00,,,0.00,weatherlink.com 1.10,2017-07-24 08:36:00,
2017-07-24 01:52:00,60.1,53.0,29.84,SW,227,1.0,7.0,78,0.00,,,0.00,weatherlink.com 1.10,2017-07-24 08:52:00,
2017-07-24 02:07:00,59.0,53.0,29.84,WSW,241,1.0,3.0,79,0.00,,,0.00,weatherlink.com 1.10,2017-07-24 09:07:00,
2017-07-24 02:22:00,59.5,53.0,29.84,WSW,247,0.0,1.0,78,0.00,,,0.00,weatherlink.com 1.10,2017-07-24 09:22:00,
2017-07-24 02:37:00,59.8,53.0,29.85,SSW,212,1.0,4.0,78,0.00,,,0.00,weatherlink.com 1.10,2017-07-24 09:37:00,
2017-07-24 02:52:00,60.0,52.0,29.85,SW,232,2.0,4.0,76,0.00,,,0.00,weatherlink.com 1.10,2017-07-24 09:52:00,
2017-07-24 03:07:00,60.2,52.0,29.85,SW,231,4.0,4.0,75,0.00,,,0.00,weatherlink.com 1.10,2017-07-24 10:07:00,
2017-07-24 03:22:00,59.4,51.0,29.85,WSW,243,2.0,4.0,75,0.00,,,0.00,weatherlink.com 1.10,2017-07-24 10:22:00,
2017-07-24 03:37:00,58.8,52.0,29.85,SW,214,3.0,4.0,77,0.00,,,0.00,weatherlink.com 1.10,2017-07-24 10:37:00,
2017-07-24 03:52:00,58.3,51.0,29.86,SSW,212,1.0,3.0,78,0.00,,,0.00,weatherlink.com 1.10,2017-07-24 10:52:00,
2017-07-24 04:07:00,58.3,51.0,29.86,SW,236,0.0,1.0,78,0.00,,,0.00,weatherlink.com 1.10,2017-07-24 11:07:00,
2017-07-24 04:22:00,59.0,52.0,29.87,SW,229,2.0,2.0,77,0.00,,,0.00,weatherlink.com 1.10,2017-07-24 11:22:00,
2017-07-24 04:37:00,58.4,52.0,29.88,SSW,207,2.0,3.0,78,0.00,,,0.00,weatherlink.com 1.10,2017-07-24 11:37:00,
2017-07-24 04:52:00,58.2,51.0,29.88,SW,222,0.0,2.0,78,0.00,,,0.00,weatherlink.com 1.10,2017-07-24 11:52:00,
2017-07-24 05:07:00,58.4,52.0,29.88,SW,225,0.0,3.0,78,0.00,,,0.00,weatherlink.com 1.10,2017-07-24 12:07:00,
2017-07-24 05:22:00,58.0,51.0,29.89,WSW,252,0.0,3.0,78,0.00,,,0.00,weatherlink.com 1.10,2017-07-24 12:22:00,
2017-07-24 05:37:00,58.2,51.0,29.89,SW,229,1.0,2.0,78,0.00,,,0.00,weatherlink.com 1.10,2017-07-24 12:37:00,
2017-07-24 05:52:00,57.5,51.0,29.89,SW,225,0.0,0.0,79,0.00,,,0.00,weatherlink.com 1.10,2017-07-24 12:52:00,
2017-07-24 06:07:00,58.2,52.0,29.89,SW,225,0.0,0.0,79,0.00,,,0.00,weatherlink.com 1.10,2017-07-24 13:07:00,
2017-07-24 06:22:00,59.4,52.0,29.90,SW,225,0.0,0.0,76,0.00,,,0.00,weatherlink.com 1.10,2017-07-24 13:22:00,
2017-07-24 06:37:00,60.9,52.0,29.90,SW,225,0.0,0.0,73,0.00,,,0.00,weatherlink.com 1.10,2017-07-24 13:37:00,
2017-07-24 06:52:00,62.1,53.0,29.91,SW,225,0.0,3.0,71,0.00,,,0.00,weatherlink.com 1.10,2017-07-24 13:52:00,
2017-07-24 07:07:00,62.8,53.0,29.91,SW,225,0.0,1.0,70,0.00,,,0.00,weatherlink.com 1.10,2017-07-24 14:07:00,
2017-07-24 07:22:00,63.5,53.0,29.91,SW,225,0.0,1.0,69,0.00,,,0.00,weatherlink.com 1.10,2017-07-24 14:22:00,
2017-07-24 07:37:00,63.9,53.0,29.91,West,259,0.0,2.0,67,0.00,,,0.00,weatherlink.com 1.10,2017-07-24 14:37:00,